Hoegh Berlin — C6XQ4 — position and weather

sailwx.info

Track history (hours):
 
Tides and Currents Weather Stations Pressure Air Temp Water Temp Dewpoint Dewpoint Depression Visibility Wind Speed Wind Dir Waves Ship Positions

Hoegh Berlin

Last reported at 2017-Oct-19 23:31 UTC. Time now 2017-Oct-19 23:59 UTC.
Position N 53°38' E 008°27'.

Length 228 m; draft 7.8 m.

Type: Cargo ship. MMSI: 311019100.

Date/timePositionNaut miles runAvg speedWind from/ knotsBaromVisibWave heightAir tempDewpointWater temp
2017-Oct-19 23:31N 53°38' E 008°27'611.1
2017-Oct-19 23:01N 53°34' E 008°33'1 1.1
2017-Oct-19 22:30N 53°33' E 008°34'0 0.2
2017-Oct-19 22:01N 53°34' E 008°34'1 1.5
2017-Oct-19 21:30N 53°34' E 008°33'0 0.7
2017-Oct-19 21:00N 53°35' E 008°33'0 0.0
2017-Oct-19 20:30N 53°35' E 008°33'0 0.0
2017-Oct-19 20:00N 53°35' E 008°33'0 0.0
2017-Oct-19 19:30N 53°35' E 008°33'0 0.0
2017-Oct-19 19:00N 53°35' E 008°33'0 0.0
2017-Oct-19 18:30N 53°35' E 008°33'0 0.0
2017-Oct-19 18:00N 53°35' E 008°33'0 0.0
2017-Oct-19 17:30N 53°35' E 008°33'0 0.0
2017-Oct-19 17:00N 53°35' E 008°33'0 0.0
2017-Oct-19 16:30N 53°35' E 008°33'0 0.0
2017-Oct-19 16:00N 53°35' E 008°33'0 0.0
2017-Oct-19 15:30N 53°35' E 008°33'0 0.0
2017-Oct-19 15:00N 53°35' E 008°33'0 0.0
2017-Oct-19 14:30N 53°35' E 008°33'0 0.0
2017-Oct-19 14:00N 53°35' E 008°33'0 0.0
2017-Oct-19 13:30N 53°35' E 008°33'0 0.0
2017-Oct-19 13:00N 53°35' E 008°33'0 0.0
2017-Oct-19 12:30N 53°35' E 008°33'0 0.0
2017-Oct-19 12:00N 53°35' E 008°33'0 0.0
2017-Oct-19 11:30N 53°35' E 008°33'0 0.0
2017-Oct-19 11:00N 53°35' E 008°33'0 0.0
2017-Oct-19 10:30N 53°35' E 008°33'0 0.0
2017-Oct-19 10:01N 53°35' E 008°33'0 0.0
2017-Oct-19 09:30N 53°35' E 008°33'0 0.0
2017-Oct-19 09:01N 53°35' E 008°33'0 0.0
2017-Oct-19 08:30N 53°35' E 008°33'0 0.0
2017-Oct-19 08:00N 53°35' E 008°33'0 0.0
2017-Oct-19 07:31N 53°35' E 008°33'0 0.0
2017-Oct-19 07:01N 53°35' E 008°33'0 0.0
2017-Oct-19 06:30N 53°35' E 008°33'0 0.0
2017-Oct-19 06:01N 53°35' E 008°33'0 0.0
2017-Oct-19 05:31N 53°35' E 008°33'0 0.0
2017-Oct-19 05:00N 53°35' E 008°33'0 0.0
2017-Oct-19 04:30N 53°35' E 008°33'0 0.0
2017-Oct-19 04:01N 53°35' E 008°33'0 0.9
2017-Oct-19 03:30N 53°34' E 008°33'0 0.6
2017-Oct-19 03:00N 53°34' E 008°33'2 4.6
2017-Oct-19 02:30N 53°36' E 008°31'5 9.2
2017-Oct-19 02:01N 53°39' E 008°25'612.0
2017-Oct-19 01:30N 53°43' E 008°17'612.1
2017-Oct-19 01:00N 53°47' E 008°09'612.3
2017-Oct-19 00:31N 53°51' E 008°02'8 6.7
2017-Oct-18 23:18N 53°55' E 007°50'0 0.5
2017-Oct-18 22:59N 53°55' E 007°51'0 0.0
2017-Oct-18 22:22N 53°55' E 007°50'0 0.1
2017-Oct-18 21:34N 53°55' E 007°51'0 0.0
2017-Oct-18 21:30N 53°55' E 007°51'0 0.0
2017-Oct-18 20:46N 53°55' E 007°51'0 0.0
2017-Oct-18 20:29N 53°55' E 007°51'0 0.0
2017-Oct-18 18:17N 53°55' E 007°51'0 0.0
2017-Oct-18 17:46N 53°55' E 007°51'0 1.6
2017-Oct-18 17:29N 53°55' E 007°50'1 1.9
2017-Oct-18 16:52N 53°56' E 007°48'410.8
2017-Oct-18 16:30N 53°55' E 007°41'1914.4
2017-Oct-18 15:12N 53°51' E 007°10'314.7
2017-Oct-18 14:59N 53°51' E 007°05'6015.0
2017-Oct-18 10:57N 53°34' E 005°27'715.1
2017-Oct-18 10:30N 53°32' E 005°16'815.7
2017-Oct-18 10:01N 53°29' E 005°04'815.8
2017-Oct-18 09:30N 53°26' E 004°52'815.3
2017-Oct-18 09:00N 53°22' E 004°41'815.4
2017-Oct-18 08:30N 53°15' E 004°35'815.6
2017-Oct-18 07:59N 53°08' E 004°30'815.6
2017-Oct-18 07:30N 53°02' E 004°23'815.6
2017-Oct-18 07:00N 52°55' E 004°17'815.6
2017-Oct-18 06:30N 52°48' E 004°11'815.6
2017-Oct-18 06:00N 52°42' E 004°03'815.9
2017-Oct-18 05:30N 52°36' E 003°54'816.1
2017-Oct-18 05:00N 52°30' E 003°44'816.3
2017-Oct-18 04:30N 52°25' E 003°35'816.6
2017-Oct-18 04:00N 52°19' E 003°25'816.8
2017-Oct-18 03:30N 52°13' E 003°15'917.0
2017-Oct-18 03:00N 52°07' E 003°05'917.2
2017-Oct-18 02:31N 52°01' E 002°56'917.5
2017-Oct-18 02:01N 51°54' E 002°46'917.7
2017-Oct-18 01:30N 51°47' E 002°38'917.9
2017-Oct-18 00:59N 51°40' E 002°29'917.9
2017-Oct-18 00:29N 51°33' E 002°20'917.9
2017-Oct-18 00:00N 51°26' E 002°12'917.8
2017-Oct-17 23:31N 51°17' E 002°07'917.7
2017-Oct-17 23:00N 51°11' E 001°57'918.9
2017-Oct-17 22:30N 51°06' E 001°44'1019.3
2017-Oct-17 22:00N 50°60' E 001°32'1118.8
2017-Oct-17 21:26N 50°50' E 001°24'818.2
2017-Oct-17 20:59N 50°43' E 001°20'917.8
2017-Oct-17 20:30N 50°37' E 001°10'1217.4
2017-Oct-17 19:50N 50°30' E 000°56'717.8
2017-Oct-17 19:28N 50°28' E 000°46'1018.0
2017-Oct-17 18:55N 50°25' E 000°31'818.2
2017-Oct-17 18:30N 50°23' E 000°20'918.4
2017-Oct-17 18:00N 50°20' E 000°06'918.0
2017-Oct-17 17:30N 50°18' W 000°08'917.5
2017-Oct-17 16:59N 50°16' W 000°22'816.7
2017-Oct-17 16:30N 50°13' W 000°33'816.4
2017-Oct-17 16:00N 50°11' W 000°46'815.8
2017-Oct-17 15:30N 50°09' W 000°58'815.1
2017-Oct-17 15:00N 50°08' W 001°09'814.5
2017-Oct-17 14:26N 50°05' W 001°21'613.9
2017-Oct-17 14:00N 50°03' W 001°30'713.3
2017-Oct-17 13:30N 50°01' W 001°40'712.8
2017-Oct-17 12:58N 49°60' W 001°51'612.6
2017-Oct-17 12:30N 49°58' W 001°59'612.4
2017-Oct-17 12:00N 49°56' W 002°09'612.5
2017-Oct-17 11:30N 49°55' W 002°18'1113.3
2017-Oct-17 10:42N 49°52' W 002°34'713.9
2017-Oct-17 10:13N 49°50' W 002°44'314.2
2017-Oct-17 09:59N 49°49' W 002°49'714.4
2017-Oct-17 09:30N 49°48' W 002°59'714.7
2017-Oct-17 09:00N 49°46' W 003°10'714.8
2017-Oct-17 08:30N 49°44' W 003°21'1214.7
2017-Oct-17 07:40N 49°42' W 003°40'314.7
2017-Oct-17 07:27N 49°41' W 003°45'2014.4
2017-Oct-17 06:03N 49°34' W 004°14'1014.5
2017-Oct-17 05:22N 49°31' W 004°29'  
Track history (hours):
 
Tides and Currents Weather Stations Pressure Air Temp Water Temp Dewpoint Dewpoint Depression Visibility Wind Speed Wind Dir Waves Ship Positions

Hoegh Berlin

Last reported at 2017-Oct-19 23:31 UTC. Time now 2017-Oct-19 23:59 UTC.
Position N 53°38' E 008°27'.

Length 228 m; draft 7.8 m.

Type: Cargo ship. MMSI: 311019100.

Date/timePositionNaut miles runAvg speedWind from/ knotsBaromVisibWave heightAir tempDewpointWater temp
2017-Oct-19 23:31N 53°38' E 008°27'611.1
2017-Oct-19 23:01N 53°34' E 008°33'1 1.1
2017-Oct-19 22:30N 53°33' E 008°34'0 0.2
2017-Oct-19 22:01N 53°34' E 008°34'1 1.5
2017-Oct-19 21:30N 53°34' E 008°33'0 0.7
2017-Oct-19 21:00N 53°35' E 008°33'0 0.0
2017-Oct-19 20:30N 53°35' E 008°33'0 0.0
2017-Oct-19 20:00N 53°35' E 008°33'0 0.0
2017-Oct-19 19:30N 53°35' E 008°33'0 0.0
2017-Oct-19 19:00N 53°35' E 008°33'0 0.0
2017-Oct-19 18:30N 53°35' E 008°33'0 0.0
2017-Oct-19 18:00N 53°35' E 008°33'0 0.0
2017-Oct-19 17:30N 53°35' E 008°33'0 0.0
2017-Oct-19 17:00N 53°35' E 008°33'0 0.0
2017-Oct-19 16:30N 53°35' E 008°33'0 0.0
2017-Oct-19 16:00N 53°35' E 008°33'0 0.0
2017-Oct-19 15:30N 53°35' E 008°33'0 0.0
2017-Oct-19 15:00N 53°35' E 008°33'0 0.0
2017-Oct-19 14:30N 53°35' E 008°33'0 0.0
2017-Oct-19 14:00N 53°35' E 008°33'0 0.0
2017-Oct-19 13:30N 53°35' E 008°33'0 0.0
2017-Oct-19 13:00N 53°35' E 008°33'0 0.0
2017-Oct-19 12:30N 53°35' E 008°33'0 0.0
2017-Oct-19 12:00N 53°35' E 008°33'0 0.0
2017-Oct-19 11:30N 53°35' E 008°33'0 0.0
2017-Oct-19 11:00N 53°35' E 008°33'0 0.0
2017-Oct-19 10:30N 53°35' E 008°33'0 0.0
2017-Oct-19 10:01N 53°35' E 008°33'0 0.0
2017-Oct-19 09:30N 53°35' E 008°33'0 0.0
2017-Oct-19 09:01N 53°35' E 008°33'0 0.0
2017-Oct-19 08:30N 53°35' E 008°33'0 0.0
2017-Oct-19 08:00N 53°35' E 008°33'0 0.0
2017-Oct-19 07:31N 53°35' E 008°33'0 0.0
2017-Oct-19 07:01N 53°35' E 008°33'0 0.0
2017-Oct-19 06:30N 53°35' E 008°33'0 0.0
2017-Oct-19 06:01N 53°35' E 008°33'0 0.0
2017-Oct-19 05:31N 53°35' E 008°33'0 0.0
2017-Oct-19 05:00N 53°35' E 008°33'0 0.0
2017-Oct-19 04:30N 53°35' E 008°33'0 0.0
2017-Oct-19 04:01N 53°35' E 008°33'0 0.9
2017-Oct-19 03:30N 53°34' E 008°33'0 0.6
2017-Oct-19 03:00N 53°34' E 008°33'2 4.6
2017-Oct-19 02:30N 53°36' E 008°31'5 9.2
2017-Oct-19 02:01N 53°39' E 008°25'612.0
2017-Oct-19 01:30N 53°43' E 008°17'612.1
2017-Oct-19 01:00N 53°47' E 008°09'612.3
2017-Oct-19 00:31N 53°51' E 008°02'8 6.7
2017-Oct-18 23:18N 53°55' E 007°50'0 0.5
2017-Oct-18 22:59N 53°55' E 007°51'0 0.0
2017-Oct-18 22:22N 53°55' E 007°50'0 0.1
2017-Oct-18 21:34N 53°55' E 007°51'0 0.0
2017-Oct-18 21:30N 53°55' E 007°51'0 0.0
2017-Oct-18 20:46N 53°55' E 007°51'0 0.0
2017-Oct-18 20:29N 53°55' E 007°51'0 0.0
2017-Oct-18 18:17N 53°55' E 007°51'0 0.0
2017-Oct-18 17:46N 53°55' E 007°51'0 1.6
2017-Oct-18 17:29N 53°55' E 007°50'1 1.9
2017-Oct-18 16:52N 53°56' E 007°48'410.8
2017-Oct-18 16:30N 53°55' E 007°41'1914.4
2017-Oct-18 15:12N 53°51' E 007°10'314.7
2017-Oct-18 14:59N 53°51' E 007°05'6015.0
2017-Oct-18 10:57N 53°34' E 005°27'715.1
2017-Oct-18 10:30N 53°32' E 005°16'815.7
2017-Oct-18 10:01N 53°29' E 005°04'815.8
2017-Oct-18 09:30N 53°26' E 004°52'815.3
2017-Oct-18 09:00N 53°22' E 004°41'815.4
2017-Oct-18 08:30N 53°15' E 004°35'815.6
2017-Oct-18 07:59N 53°08' E 004°30'815.6
2017-Oct-18 07:30N 53°02' E 004°23'815.6
2017-Oct-18 07:00N 52°55' E 004°17'815.6
2017-Oct-18 06:30N 52°48' E 004°11'815.6
2017-Oct-18 06:00N 52°42' E 004°03'815.9
2017-Oct-18 05:30N 52°36' E 003°54'816.1
2017-Oct-18 05:00N 52°30' E 003°44'816.3
2017-Oct-18 04:30N 52°25' E 003°35'816.6
2017-Oct-18 04:00N 52°19' E 003°25'816.8
2017-Oct-18 03:30N 52°13' E 003°15'917.0
2017-Oct-18 03:00N 52°07' E 003°05'917.2
2017-Oct-18 02:31N 52°01' E 002°56'917.5
2017-Oct-18 02:01N 51°54' E 002°46'917.7
2017-Oct-18 01:30N 51°47' E 002°38'917.9
2017-Oct-18 00:59N 51°40' E 002°29'917.9
2017-Oct-18 00:29N 51°33' E 002°20'917.9
2017-Oct-18 00:00N 51°26' E 002°12'917.8
2017-Oct-17 23:31N 51°17' E 002°07'917.7
2017-Oct-17 23:00N 51°11' E 001°57'918.9
2017-Oct-17 22:30N 51°06' E 001°44'1019.3
2017-Oct-17 22:00N 50°60' E 001°32'1118.8
2017-Oct-17 21:26N 50°50' E 001°24'818.2
2017-Oct-17 20:59N 50°43' E 001°20'917.8
2017-Oct-17 20:30N 50°37' E 001°10'1217.4
2017-Oct-17 19:50N 50°30' E 000°56'717.8
2017-Oct-17 19:28N 50°28' E 000°46'1018.0
2017-Oct-17 18:55N 50°25' E 000°31'818.2
2017-Oct-17 18:30N 50°23' E 000°20'918.4
2017-Oct-17 18:00N 50°20' E 000°06'918.0
2017-Oct-17 17:30N 50°18' W 000°08'917.5
2017-Oct-17 16:59N 50°16' W 000°22'816.7
2017-Oct-17 16:30N 50°13' W 000°33'816.4
2017-Oct-17 16:00N 50°11' W 000°46'815.8
2017-Oct-17 15:30N 50°09' W 000°58'815.1
2017-Oct-17 15:00N 50°08' W 001°09'814.5
2017-Oct-17 14:26N 50°05' W 001°21'613.9
2017-Oct-17 14:00N 50°03' W 001°30'713.3
2017-Oct-17 13:30N 50°01' W 001°40'712.8
2017-Oct-17 12:58N 49°60' W 001°51'612.6
2017-Oct-17 12:30N 49°58' W 001°59'612.4
2017-Oct-17 12:00N 49°56' W 002°09'612.5
2017-Oct-17 11:30N 49°55' W 002°18'1113.3
2017-Oct-17 10:42N 49°52' W 002°34'713.9
2017-Oct-17 10:13N 49°50' W 002°44'314.2
2017-Oct-17 09:59N 49°49' W 002°49'714.4
2017-Oct-17 09:30N 49°48' W 002°59'714.7
2017-Oct-17 09:00N 49°46' W 003°10'714.8
2017-Oct-17 08:30N 49°44' W 003°21'1214.7
2017-Oct-17 07:40N 49°42' W 003°40'314.7
2017-Oct-17 07:27N 49°41' W 003°45'2014.4
2017-Oct-17 06:03N 49°34' W 004°14'1014.5
2017-Oct-17 05:22N 49°31' W 004°29'  

Dump ship's entire track history